首页
METAR-TAF:

METAR-TAF

机场 :

Brenner Field

Falls City, 內布拉斯加州, 美国

纬度: 40-04-44N, 经度: 095-35-31W, 海拔: 300米

当前天气观测

该预报发布于43分钟前的20:53 UTC
风速8节,风向西转西北
温度 23°C
湿度 69%
气压 1007 hPa
能見度: 16.1公里
散云层高于3000英尺
多云层高于4600英尺
阴天层高于7000英尺

METAR: KFNB 192053Z AUTO 30008KT 10SM SCT030 BKN046 OVC070 23/17 A2973 RMK AO2 SLP059 T02330172 56010

时间: 16:36 (21:36 UTC)


TAF: 丢失

超过4000个机场的气象观测和天气预报(METAR&TAF报告)。

可查询的气象台以黄色和红色小点在地图上表示。

将鼠标移到小点上方,可查看气象台名称。

然后点击查看天气观测和预报。

如需切换地图:点击带黑十字的绿色按钮放大地图;点击带横线的绿色按钮缩小地图;或者点击绿色箭头查看邻近地区的地图。


METAR-TAF: